Mashpee, Massachusetts
Current Conditions -  °F | °C
As of 1:55 PM on Thursday 30 Oct 2014 (Local Time) from KFMH Reporting Station
Clear Clear  
Wind Chill: 59°   Ceiling: Unl
Heat Index: 59°   Visibility: 10mi
Dew Point: 37°   Wind: 7mph
Humidity: 45%   Direction: 290°WNW
Pressure: 29.91"   Gusts: NA
Location:  41.57°N, 70.48°W
Report Text: KFMH 301755Z AUTO 29006KT 10SM CLR 15/03 A2991 RMK AO2
Loading
Personal Weather Stations






























Interactive Weather Map
Tropical Storm Tracking
New forecast layout! Learn more

10-Day Weather Forecast

Advertisements
Track Severe Weather on mobile